sensor_id;sensor_type;location;lat;lon;timestamp;temperature;humidity
17252;DHT22;8742;51.716;8.790;2023-03-14T00:01:19;11.90;99.90
17252;DHT22;8742;51.716;8.790;2023-03-14T00:03:46;11.90;99.90
17252;DHT22;8742;51.716;8.790;2023-03-14T00:06:14;12.00;99.90
17252;DHT22;8742;51.716;8.790;2023-03-14T00:08:43;11.90;99.90
17252;DHT22;8742;51.716;8.790;2023-03-14T00:11:12;11.90;99.90
17252;DHT22;8742;51.716;8.790;2023-03-14T00:13:39;11.90;99.90
17252;DHT22;8742;51.716;8.790;2023-03-14T00:16:09;11.90;99.90
17252;DHT22;8742;51.716;8.790;2023-03-14T00:18:36;11.90;99.90
17252;DHT22;8742;51.716;8.790;2023-03-14T00:21:04;11.90;99.90
17252;DHT22;8742;51.716;8.790;2023-03-14T00:23:33;12.00;99.90
17252;DHT22;8742;51.716;8.790;2023-03-14T00:26:03;12.00;99.90
17252;DHT22;8742;51.716;8.790;2023-03-14T00:28:31;12.00;99.90
17252;DHT22;8742;51.716;8.790;2023-03-14T00:30:57;12.00;99.90
17252;DHT22;8742;51.716;8.790;2023-03-14T00:33:24;11.90;99.90
17252;DHT22;8742;51.716;8.790;2023-03-14T00:35:55;11.90;99.90
17252;DHT22;8742;51.716;8.790;2023-03-14T00:38:22;11.80;99.90
17252;DHT22;8742;51.716;8.790;2023-03-14T00:40:50;11.80;99.90
17252;DHT22;8742;51.716;8.790;2023-03-14T00:43:18;11.90;99.90
17252;DHT22;8742;51.716;8.790;2023-03-14T00:45:47;11.80;99.90
17252;DHT22;8742;51.716;8.790;2023-03-14T00:48:13;11.80;99.90
17252;DHT22;8742;51.716;8.790;2023-03-14T00:50:40;11.80;99.90
17252;DHT22;8742;51.716;8.790;2023-03-14T00:53:07;11.70;99.90
17252;DHT22;8742;51.716;8.790;2023-03-14T00:55:36;11.70;99.90
17252;DHT22;8742;51.716;8.790;2023-03-14T00:58:03;11.70;99.90
17252;DHT22;8742;51.716;8.790;2023-03-14T01:00:31;11.70;99.90
17252;DHT22;8742;51.716;8.790;2023-03-14T01:02:58;11.70;99.90
17252;DHT22;8742;51.716;8.790;2023-03-14T01:05:25;11.70;99.90
17252;DHT22;8742;51.716;8.790;2023-03-14T01:07:52;11.80;99.90
17252;DHT22;8742;51.716;8.790;2023-03-14T01:10:19;11.80;99.90
17252;DHT22;8742;51.716;8.790;2023-03-14T01:12:46;11.80;99.90
17252;DHT22;8742;51.716;8.790;2023-03-14T01:15:13;11.80;99.90
17252;DHT22;8742;51.716;8.790;2023-03-14T01:17:41;11.80;99.90
17252;DHT22;8742;51.716;8.790;2023-03-14T01:20:11;11.90;99.90
17252;DHT22;8742;51.716;8.790;2023-03-14T01:22:39;11.90;99.90
17252;DHT22;8742;51.716;8.790;2023-03-14T01:25:07;12.00;99.90
17252;DHT22;8742;51.716;8.790;2023-03-14T01:27:34;12.00;99.90
17252;DHT22;8742;51.716;8.790;2023-03-14T01:30:01;12.00;99.90
17252;DHT22;8742;51.716;8.790;2023-03-14T01:32:30;12.00;99.90
17252;DHT22;8742;51.716;8.790;2023-03-14T01:34:58;11.90;99.90
17252;DHT22;8742;51.716;8.790;2023-03-14T01:37:25;11.90;99.90
17252;DHT22;8742;51.716;8.790;2023-03-14T01:39:52;11.90;99.90
17252;DHT22;8742;51.716;8.790;2023-03-14T01:42:18;11.80;99.90
17252;DHT22;8742;51.716;8.790;2023-03-14T01:44:50;11.90;99.90
17252;DHT22;8742;51.716;8.790;2023-03-14T01:47:17;11.80;99.90
17252;DHT22;8742;51.716;8.790;2023-03-14T01:49:45;11.80;99.90
17252;DHT22;8742;51.716;8.790;2023-03-14T01:52:17;11.80;99.90
17252;DHT22;8742;51.716;8.790;2023-03-14T01:54:47;11.80;99.90
17252;DHT22;8742;51.716;8.790;2023-03-14T01:57:18;11.90;99.90
17252;DHT22;8742;51.716;8.790;2023-03-14T01:59:49;11.90;99.90
17252;DHT22;8742;51.716;8.790;2023-03-14T02:02:18;12.00;99.90
17252;DHT22;8742;51.716;8.790;2023-03-14T02:04:45;12.00;99.90
17252;DHT22;8742;51.716;8.790;2023-03-14T02:07:16;12.00;99.90
17252;DHT22;8742;51.716;8.790;2023-03-14T02:09:44;12.00;99.90
17252;DHT22;8742;51.716;8.790;2023-03-14T02:12:12;11.90;99.90
17252;DHT22;8742;51.716;8.790;2023-03-14T02:14:40;11.90;99.90
17252;DHT22;8742;51.716;8.790;2023-03-14T02:17:14;11.90;99.90
17252;DHT22;8742;51.716;8.790;2023-03-14T02:20:01;11.90;99.90
17252;DHT22;8742;51.716;8.790;2023-03-14T02:22:32;11.90;99.90
17252;DHT22;8742;51.716;8.790;2023-03-14T02:25:06;12.00;99.90
17252;DHT22;8742;51.716;8.790;2023-03-14T02:27:36;12.00;99.90
17252;DHT22;8742;51.716;8.790;2023-03-14T02:30:06;12.00;99.90
17252;DHT22;8742;51.716;8.790;2023-03-14T02:32:36;12.00;99.90
17252;DHT22;8742;51.716;8.790;2023-03-14T02:35:08;12.00;99.90
17252;DHT22;8742;51.716;8.790;2023-03-14T02:37:38;12.00;99.90
17252;DHT22;8742;51.716;8.790;2023-03-14T02:40:07;12.00;99.90
17252;DHT22;8742;51.716;8.790;2023-03-14T02:42:36;12.10;99.90
17252;DHT22;8742;51.716;8.790;2023-03-14T02:45:37;12.10;99.90
17252;DHT22;8742;51.716;8.790;2023-03-14T02:48:07;12.10;99.90
17252;DHT22;8742;51.716;8.790;2023-03-14T02:50:35;12.10;99.90
17252;DHT22;8742;51.716;8.790;2023-03-14T02:53:02;12.10;99.90
17252;DHT22;8742;51.716;8.790;2023-03-14T02:55:29;12.10;99.90
17252;DHT22;8742;51.716;8.790;2023-03-14T02:57:57;12.00;99.90
17252;DHT22;8742;51.716;8.790;2023-03-14T03:00:24;11.80;99.90
17252;DHT22;8742;51.716;8.790;2023-03-14T03:02:50;11.50;99.90
17252;DHT22;8742;51.716;8.790;2023-03-14T03:05:17;11.10;99.90
17252;DHT22;8742;51.716;8.790;2023-03-14T03:07:44;10.70;99.90
17252;DHT22;8742;51.716;8.790;2023-03-14T03:10:11;10.40;99.90
17252;DHT22;8742;51.716;8.790;2023-03-14T03:12:38;10.10;99.90
17252;DHT22;8742;51.716;8.790;2023-03-14T03:15:07;9.90;99.90
17252;DHT22;8742;51.716;8.790;2023-03-14T03:17:34;9.70;99.90
17252;DHT22;8742;51.716;8.790;2023-03-14T03:20:01;9.50;99.90
17252;DHT22;8742;51.716;8.790;2023-03-14T03:22:29;9.40;99.90
17252;DHT22;8742;51.716;8.790;2023-03-14T03:24:55;9.20;99.90
17252;DHT22;8742;51.716;8.790;2023-03-14T03:27:22;9.10;99.90
17252;DHT22;8742;51.716;8.790;2023-03-14T03:29:49;9.00;99.90
17252;DHT22;8742;51.716;8.790;2023-03-14T03:32:17;8.90;99.90
17252;DHT22;8742;51.716;8.790;2023-03-14T03:34:44;8.80;99.90
17252;DHT22;8742;51.716;8.790;2023-03-14T03:37:11;8.70;99.90
17252;DHT22;8742;51.716;8.790;2023-03-14T03:39:37;8.70;99.90
17252;DHT22;8742;51.716;8.790;2023-03-14T03:42:04;8.70;99.90
17252;DHT22;8742;51.716;8.790;2023-03-14T03:44:31;8.80;99.90
17252;DHT22;8742;51.716;8.790;2023-03-14T03:46:58;8.80;99.90
17252;DHT22;8742;51.716;8.790;2023-03-14T03:49:29;8.80;99.90
17252;DHT22;8742;51.716;8.790;2023-03-14T03:51:58;8.80;99.90
17252;DHT22;8742;51.716;8.790;2023-03-14T03:54:25;8.90;99.90
17252;DHT22;8742;51.716;8.790;2023-03-14T03:56:52;8.90;99.90
17252;DHT22;8742;51.716;8.790;2023-03-14T03:59:19;8.90;99.90
17252;DHT22;8742;51.716;8.790;2023-03-14T04:01:46;8.90;99.90
17252;DHT22;8742;51.716;8.790;2023-03-14T04:04:13;9.00;99.90
17252;DHT22;8742;51.716;8.790;2023-03-14T04:06:41;9.00;99.90
17252;DHT22;8742;51.716;8.790;2023-03-14T04:09:08;9.00;99.90
17252;DHT22;8742;51.716;8.790;2023-03-14T04:11:35;9.00;99.90
17252;DHT22;8742;51.716;8.790;2023-03-14T04:14:02;9.00;99.90
17252;DHT22;8742;51.716;8.790;2023-03-14T04:16:30;9.00;99.90
17252;DHT22;8742;51.716;8.790;2023-03-14T04:18:57;9.10;99.90
17252;DHT22;8742;51.716;8.790;2023-03-14T04:21:24;9.00;99.90
17252;DHT22;8742;51.716;8.790;2023-03-14T04:23:52;9.10;99.90
17252;DHT22;8742;51.716;8.790;2023-03-14T04:26:19;9.10;99.90
17252;DHT22;8742;51.716;8.790;2023-03-14T04:28:45;9.10;99.90
17252;DHT22;8742;51.716;8.790;2023-03-14T04:31:14;9.10;99.90
17252;DHT22;8742;51.716;8.790;2023-03-14T04:33:42;9.10;99.90
17252;DHT22;8742;51.716;8.790;2023-03-14T04:36:09;9.20;99.90
17252;DHT22;8742;51.716;8.790;2023-03-14T04:38:35;9.10;99.90
17252;DHT22;8742;51.716;8.790;2023-03-14T04:41:04;9.20;99.90
17252;DHT22;8742;51.716;8.790;2023-03-14T04:43:31;9.20;99.90
17252;DHT22;8742;51.716;8.790;2023-03-14T04:45:58;9.10;99.90
17252;DHT22;8742;51.716;8.790;2023-03-14T04:48:25;9.10;99.90
17252;DHT22;8742;51.716;8.790;2023-03-14T04:50:52;9.00;99.90
17252;DHT22;8742;51.716;8.790;2023-03-14T04:53:19;8.90;99.90
17252;DHT22;8742;51.716;8.790;2023-03-14T04:55:48;8.90;99.90
17252;DHT22;8742;51.716;8.790;2023-03-14T04:58:16;8.80;99.90
17252;DHT22;8742;51.716;8.790;2023-03-14T05:00:43;8.90;99.90
17252;DHT22;8742;51.716;8.790;2023-03-14T05:03:10;8.90;99.90
17252;DHT22;8742;51.716;8.790;2023-03-14T05:05:37;8.90;99.90
17252;DHT22;8742;51.716;8.790;2023-03-14T05:08:04;9.00;99.90
17252;DHT22;8742;51.716;8.790;2023-03-14T05:10:31;9.00;99.90
17252;DHT22;8742;51.716;8.790;2023-03-14T05:12:57;9.10;99.90
17252;DHT22;8742;51.716;8.790;2023-03-14T05:15:26;9.20;99.90
17252;DHT22;8742;51.716;8.790;2023-03-14T05:17:52;9.30;99.90
17252;DHT22;8742;51.716;8.790;2023-03-14T05:20:19;9.30;99.90
17252;DHT22;8742;51.716;8.790;2023-03-14T05:22:46;9.30;99.90
17252;DHT22;8742;51.716;8.790;2023-03-14T05:25:13;9.40;99.90
17252;DHT22;8742;51.716;8.790;2023-03-14T05:27:40;9.40;99.90
17252;DHT22;8742;51.716;8.790;2023-03-14T05:30:10;9.30;99.90
17252;DHT22;8742;51.716;8.790;2023-03-14T05:32:38;9.20;99.90
17252;DHT22;8742;51.716;8.790;2023-03-14T05:35:05;9.20;99.90
17252;DHT22;8742;51.716;8.790;2023-03-14T05:37:32;9.20;99.90
17252;DHT22;8742;51.716;8.790;2023-03-14T05:40:00;9.20;99.90
17252;DHT22;8742;51.716;8.790;2023-03-14T05:42:26;9.20;99.90
17252;DHT22;8742;51.716;8.790;2023-03-14T05:44:53;9.10;99.90
17252;DHT22;8742;51.716;8.790;2023-03-14T05:47:20;9.10;99.90
17252;DHT22;8742;51.716;8.790;2023-03-14T05:49:48;9.10;99.90
17252;DHT22;8742;51.716;8.790;2023-03-14T05:52:15;9.10;99.90
17252;DHT22;8742;51.716;8.790;2023-03-14T05:54:42;9.10;99.90
17252;DHT22;8742;51.716;8.790;2023-03-14T05:57:08;9.10;99.90
17252;DHT22;8742;51.716;8.790;2023-03-14T05:59:35;9.10;99.90
17252;DHT22;8742;51.716;8.790;2023-03-14T06:02:02;9.00;99.90
17252;DHT22;8742;51.716;8.790;2023-03-14T06:04:29;9.00;99.90
17252;DHT22;8742;51.716;8.790;2023-03-14T06:06:57;9.10;99.90
17252;DHT22;8742;51.716;8.790;2023-03-14T06:09:24;9.10;99.90
17252;DHT22;8742;51.716;8.790;2023-03-14T06:11:51;9.00;99.90
17252;DHT22;8742;51.716;8.790;2023-03-14T06:14:18;9.00;99.90
17252;DHT22;8742;51.716;8.790;2023-03-14T06:16:45;9.00;99.90
17252;DHT22;8742;51.716;8.790;2023-03-14T06:19:13;9.00;99.90
17252;DHT22;8742;51.716;8.790;2023-03-14T06:21:40;9.00;99.90
17252;DHT22;8742;51.716;8.790;2023-03-14T06:24:08;9.10;99.90
17252;DHT22;8742;51.716;8.790;2023-03-14T06:26:35;9.10;99.90
17252;DHT22;8742;51.716;8.790;2023-03-14T06:29:02;9.10;99.90
17252;DHT22;8742;51.716;8.790;2023-03-14T06:31:29;9.10;99.90
17252;DHT22;8742;51.716;8.790;2023-03-14T06:33:56;9.20;99.90
17252;DHT22;8742;51.716;8.790;2023-03-14T06:36:22;9.30;99.90
17252;DHT22;8742;51.716;8.790;2023-03-14T06:38:50;9.30;99.90
17252;DHT22;8742;51.716;8.790;2023-03-14T06:41:19;9.40;99.90
17252;DHT22;8742;51.716;8.790;2023-03-14T06:43:49;9.40;99.90
17252;DHT22;8742;51.716;8.790;2023-03-14T06:46:16;9.40;99.90
17252;DHT22;8742;51.716;8.790;2023-03-14T06:48:43;9.50;99.90
17252;DHT22;8742;51.716;8.790;2023-03-14T06:51:09;9.60;99.90
17252;DHT22;8742;51.716;8.790;2023-03-14T06:53:36;9.60;99.90
17252;DHT22;8742;51.716;8.790;2023-03-14T06:56:03;9.70;99.90
17252;DHT22;8742;51.716;8.790;2023-03-14T06:58:32;9.80;99.90
17252;DHT22;8742;51.716;8.790;2023-03-14T07:00:58;9.80;99.90
17252;DHT22;8742;51.716;8.790;2023-03-14T07:03:25;9.80;99.90
17252;DHT22;8742;51.716;8.790;2023-03-14T07:05:53;9.90;99.90
17252;DHT22;8742;51.716;8.790;2023-03-14T07:08:19;9.90;99.90
17252;DHT22;8742;51.716;8.790;2023-03-14T07:10:46;9.90;99.90
17252;DHT22;8742;51.716;8.790;2023-03-14T07:13:13;10.00;99.90
17252;DHT22;8742;51.716;8.790;2023-03-14T07:15:41;10.00;99.90
17252;DHT22;8742;51.716;8.790;2023-03-14T07:18:08;10.10;99.90
17252;DHT22;8742;51.716;8.790;2023-03-14T07:20:35;10.20;99.90
17252;DHT22;8742;51.716;8.790;2023-03-14T07:23:02;10.30;99.90
17252;DHT22;8742;51.716;8.790;2023-03-14T07:25:29;10.40;99.90
17252;DHT22;8742;51.716;8.790;2023-03-14T07:27:56;10.50;99.90
17252;DHT22;8742;51.716;8.790;2023-03-14T07:30:23;10.60;99.90
17252;DHT22;8742;51.716;8.790;2023-03-14T07:32:51;10.70;99.90
17252;DHT22;8742;51.716;8.790;2023-03-14T07:35:18;10.70;99.90
17252;DHT22;8742;51.716;8.790;2023-03-14T07:37:44;10.80;99.90
17252;DHT22;8742;51.716;8.790;2023-03-14T07:40:12;10.80;99.90
17252;DHT22;8742;51.716;8.790;2023-03-14T07:42:41;10.80;99.90
17252;DHT22;8742;51.716;8.790;2023-03-14T07:45:09;10.80;99.90
17252;DHT22;8742;51.716;8.790;2023-03-14T07:47:36;10.90;99.90
17252;DHT22;8742;51.716;8.790;2023-03-14T07:50:05;10.90;99.90
17252;DHT22;8742;51.716;8.790;2023-03-14T07:52:34;11.00;99.90
17252;DHT22;8742;51.716;8.790;2023-03-14T07:55:01;11.00;99.90
17252;DHT22;8742;51.716;8.790;2023-03-14T07:57:28;11.10;99.90
17252;DHT22;8742;51.716;8.790;2023-03-14T07:59:55;11.10;99.90
17252;DHT22;8742;51.716;8.790;2023-03-14T08:02:22;11.20;99.90
17252;DHT22;8742;51.716;8.790;2023-03-14T08:04:50;11.30;99.90
17252;DHT22;8742;51.716;8.790;2023-03-14T08:07:18;11.30;99.90
17252;DHT22;8742;51.716;8.790;2023-03-14T08:09:45;11.20;99.90
17252;DHT22;8742;51.716;8.790;2023-03-14T08:12:16;11.20;99.90
17252;DHT22;8742;51.716;8.790;2023-03-14T08:14:43;11.10;99.90
17252;DHT22;8742;51.716;8.790;2023-03-14T08:17:15;11.10;99.90
17252;DHT22;8742;51.716;8.790;2023-03-14T08:19:42;11.10;99.90
17252;DHT22;8742;51.716;8.790;2023-03-14T08:22:09;11.20;99.90
17252;DHT22;8742;51.716;8.790;2023-03-14T08:24:37;11.20;99.90
17252;DHT22;8742;51.716;8.790;2023-03-14T08:27:04;11.10;99.90
17252;DHT22;8742;51.716;8.790;2023-03-14T08:29:31;11.00;99.90
17252;DHT22;8742;51.716;8.790;2023-03-14T08:31:58;11.00;99.90
17252;DHT22;8742;51.716;8.790;2023-03-14T08:34:25;11.00;99.90
17252;DHT22;8742;51.716;8.790;2023-03-14T08:36:52;11.10;99.90
17252;DHT22;8742;51.716;8.790;2023-03-14T08:39:21;11.30;99.90
17252;DHT22;8742;51.716;8.790;2023-03-14T08:41:50;11.40;99.90
17252;DHT22;8742;51.716;8.790;2023-03-14T08:44:17;11.50;99.90
17252;DHT22;8742;51.716;8.790;2023-03-14T08:46:44;11.60;99.90
17252;DHT22;8742;51.716;8.790;2023-03-14T08:49:11;11.70;99.90
17252;DHT22;8742;51.716;8.790;2023-03-14T08:51:38;11.70;99.90
17252;DHT22;8742;51.716;8.790;2023-03-14T08:54:05;11.70;99.90
17252;DHT22;8742;51.716;8.790;2023-03-14T08:56:32;11.70;99.90
17252;DHT22;8742;51.716;8.790;2023-03-14T08:59:00;11.70;99.90
17252;DHT22;8742;51.716;8.790;2023-03-14T09:01:27;11.70;99.90
17252;DHT22;8742;51.716;8.790;2023-03-14T09:03:54;11.70;99.90
17252;DHT22;8742;51.716;8.790;2023-03-14T09:06:21;11.80;99.90
17252;DHT22;8742;51.716;8.790;2023-03-14T09:08:48;11.80;99.90
17252;DHT22;8742;51.716;8.790;2023-03-14T09:11:15;11.90;99.90
17252;DHT22;8742;51.716;8.790;2023-03-14T09:13:43;11.90;99.90
17252;DHT22;8742;51.716;8.790;2023-03-14T09:16:11;12.00;99.90
17252;DHT22;8742;51.716;8.790;2023-03-14T09:18:38;12.10;99.90
17252;DHT22;8742;51.716;8.790;2023-03-14T09:21:05;12.10;99.90
17252;DHT22;8742;51.716;8.790;2023-03-14T09:23:32;12.10;99.90
17252;DHT22;8742;51.716;8.790;2023-03-14T09:26:00;12.20;99.90
17252;DHT22;8742;51.716;8.790;2023-03-14T09:28:27;12.20;99.90
17252;DHT22;8742;51.716;8.790;2023-03-14T09:30:54;12.30;99.90
17252;DHT22;8742;51.716;8.790;2023-03-14T09:33:22;12.30;99.90
17252;DHT22;8742;51.716;8.790;2023-03-14T09:35:49;12.30;99.90
17252;DHT22;8742;51.716;8.790;2023-03-14T09:38:16;12.40;99.90
17252;DHT22;8742;51.716;8.790;2023-03-14T09:40:43;12.50;99.90
17252;DHT22;8742;51.716;8.790;2023-03-14T09:43:11;12.50;99.90
17252;DHT22;8742;51.716;8.790;2023-03-14T09:45:40;12.50;99.90
17252;DHT22;8742;51.716;8.790;2023-03-14T09:48:14;12.50;99.90
17252;DHT22;8742;51.716;8.790;2023-03-14T09:50:46;12.60;99.90
17252;DHT22;8742;51.716;8.790;2023-03-14T09:53:17;12.70;99.90
17252;DHT22;8742;51.716;8.790;2023-03-14T09:55:45;12.80;99.90
17252;DHT22;8742;51.716;8.790;2023-03-14T09:58:14;12.80;99.90
17252;DHT22;8742;51.716;8.790;2023-03-14T10:00:42;12.90;99.90
17252;DHT22;8742;51.716;8.790;2023-03-14T10:03:22;13.00;99.90
17252;DHT22;8742;51.716;8.790;2023-03-14T10:05:50;13.00;99.90
17252;DHT22;8742;51.716;8.790;2023-03-14T10:08:17;13.00;99.90
17252;DHT22;8742;51.716;8.790;2023-03-14T10:10:44;12.90;99.90
17252;DHT22;8742;51.716;8.790;2023-03-14T10:13:15;13.00;99.90
17252;DHT22;8742;51.716;8.790;2023-03-14T10:15:48;13.30;99.90
17252;DHT22;8742;51.716;8.790;2023-03-14T10:18:15;13.30;99.90
17252;DHT22;8742;51.716;8.790;2023-03-14T10:20:43;13.10;99.90
17252;DHT22;8742;51.716;8.790;2023-03-14T10:23:24;12.90;99.90
17252;DHT22;8742;51.716;8.790;2023-03-14T10:26:04;12.60;99.90
17252;DHT22;8742;51.716;8.790;2023-03-14T10:28:33;12.30;99.90
17252;DHT22;8742;51.716;8.790;2023-03-14T10:31:00;12.10;99.90
17252;DHT22;8742;51.716;8.790;2023-03-14T10:33:29;11.90;99.90
17252;DHT22;8742;51.716;8.790;2023-03-14T10:35:58;11.80;99.90
17252;DHT22;8742;51.716;8.790;2023-03-14T10:38:28;11.70;99.90
17252;DHT22;8742;51.716;8.790;2023-03-14T10:40:56;11.60;99.90
17252;DHT22;8742;51.716;8.790;2023-03-14T10:43:26;11.70;99.90
17252;DHT22;8742;51.716;8.790;2023-03-14T10:45:55;11.60;99.90
17252;DHT22;8742;51.716;8.790;2023-03-14T10:48:29;11.50;99.90
17252;DHT22;8742;51.716;8.790;2023-03-14T10:50:59;11.40;99.90
17252;DHT22;8742;51.716;8.790;2023-03-14T10:53:33;11.30;99.90
17252;DHT22;8742;51.716;8.790;2023-03-14T10:56:02;11.20;99.90
17252;DHT22;8742;51.716;8.790;2023-03-14T10:58:31;11.10;99.90
17252;DHT22;8742;51.716;8.790;2023-03-14T11:01:08;11.00;99.90
17252;DHT22;8742;51.716;8.790;2023-03-14T11:03:42;10.90;99.90
17252;DHT22;8742;51.716;8.790;2023-03-14T11:06:14;10.80;99.90
17252;DHT22;8742;51.716;8.790;2023-03-14T11:08:47;10.60;99.90
17252;DHT22;8742;51.716;8.790;2023-03-14T11:11:23;10.40;99.90
17252;DHT22;8742;51.716;8.790;2023-03-14T11:14:00;10.20;99.90
17252;DHT22;8742;51.716;8.790;2023-03-14T11:16:37;10.10;99.90
17252;DHT22;8742;51.716;8.790;2023-03-14T11:19:27;10.00;99.90
17252;DHT22;8742;51.716;8.790;2023-03-14T11:21:59;9.80;99.90
17252;DHT22;8742;51.716;8.790;2023-03-14T11:24:47;9.70;99.90
17252;DHT22;8742;51.716;8.790;2023-03-14T11:27:18;9.60;99.90
17252;DHT22;8742;51.716;8.790;2023-03-14T11:29:54;9.40;99.90
17252;DHT22;8742;51.716;8.790;2023-03-14T11:32:32;9.40;99.90
17252;DHT22;8742;51.716;8.790;2023-03-14T11:35:04;9.20;99.90
17252;DHT22;8742;51.716;8.790;2023-03-14T11:37:36;9.20;99.90
17252;DHT22;8742;51.716;8.790;2023-03-14T11:40:14;9.10;99.90
17252;DHT22;8742;51.716;8.790;2023-03-14T11:42:43;9.10;99.90
17252;DHT22;8742;51.716;8.790;2023-03-14T11:45:17;9.00;99.90
17252;DHT22;8742;51.716;8.790;2023-03-14T11:47:48;9.00;99.90
17252;DHT22;8742;51.716;8.790;2023-03-14T11:50:21;9.00;99.90
17252;DHT22;8742;51.716;8.790;2023-03-14T11:52:52;8.90;99.90
17252;DHT22;8742;51.716;8.790;2023-03-14T11:55:26;8.80;99.90
17252;DHT22;8742;51.716;8.790;2023-03-14T11:57:58;8.70;99.90
17252;DHT22;8742;51.716;8.790;2023-03-14T12:00:26;8.50;99.90
17252;DHT22;8742;51.716;8.790;2023-03-14T12:03:01;8.40;99.90
17252;DHT22;8742;51.716;8.790;2023-03-14T12:05:50;8.30;99.90
17252;DHT22;8742;51.716;8.790;2023-03-14T12:08:43;8.20;99.90
17252;DHT22;8742;51.716;8.790;2023-03-14T12:11:19;8.10;99.90
17252;DHT22;8742;51.716;8.790;2023-03-14T12:13:49;8.00;99.90
17252;DHT22;8742;51.716;8.790;2023-03-14T12:16:34;7.90;99.90
17252;DHT22;8742;51.716;8.790;2023-03-14T12:19:36;7.70;99.90
17252;DHT22;8742;51.716;8.790;2023-03-14T12:22:27;7.50;99.90
17252;DHT22;8742;51.716;8.790;2023-03-14T12:25:02;7.40;99.90
17252;DHT22;8742;51.716;8.790;2023-03-14T12:27:48;7.20;99.90
17252;DHT22;8742;51.716;8.790;2023-03-14T12:30:25;7.10;99.90
17252;DHT22;8742;51.716;8.790;2023-03-14T12:33:28;7.00;99.90
17252;DHT22;8742;51.716;8.790;2023-03-14T12:36:20;6.90;99.90
17252;DHT22;8742;51.716;8.790;2023-03-14T12:39:10;6.80;99.90
17252;DHT22;8742;51.716;8.790;2023-03-14T12:41:43;6.70;99.90
17252;DHT22;8742;51.716;8.790;2023-03-14T12:44:39;6.60;99.90
17252;DHT22;8742;51.716;8.790;2023-03-14T12:50:12;6.50;99.90
17252;DHT22;8742;51.716;8.790;2023-03-14T12:52:44;6.50;99.90
17252;DHT22;8742;51.716;8.790;2023-03-14T12:55:19;6.50;99.90
17252;DHT22;8742;51.716;8.790;2023-03-14T12:57:55;6.50;99.90
17252;DHT22;8742;51.716;8.790;2023-03-14T13:00:31;6.60;99.90
17252;DHT22;8742;51.716;8.790;2023-03-14T13:03:02;6.70;99.90
17252;DHT22;8742;51.716;8.790;2023-03-14T13:05:51;6.70;99.90
17252;DHT22;8742;51.716;8.790;2023-03-14T13:08:34;6.70;99.90
17252;DHT22;8742;51.716;8.790;2023-03-14T13:11:04;6.80;99.90
17252;DHT22;8742;51.716;8.790;2023-03-14T13:13:34;7.00;99.90
17252;DHT22;8742;51.716;8.790;2023-03-14T13:16:04;7.10;99.90
17252;DHT22;8742;51.716;8.790;2023-03-14T13:18:35;7.30;99.90
17252;DHT22;8742;51.716;8.790;2023-03-14T13:21:05;7.40;99.90
17252;DHT22;8742;51.716;8.790;2023-03-14T13:23:35;7.50;99.90
17252;DHT22;8742;51.716;8.790;2023-03-14T13:26:09;7.50;99.90
17252;DHT22;8742;51.716;8.790;2023-03-14T13:28:37;7.50;99.90
17252;DHT22;8742;51.716;8.790;2023-03-14T13:31:12;7.60;99.90
17252;DHT22;8742;51.716;8.790;2023-03-14T13:33:42;7.60;99.90
17252;DHT22;8742;51.716;8.790;2023-03-14T13:36:13;7.70;99.90
17252;DHT22;8742;51.716;8.790;2023-03-14T13:38:57;7.70;99.90
17252;DHT22;8742;51.716;8.790;2023-03-14T13:41:25;7.60;99.90
17252;DHT22;8742;51.716;8.790;2023-03-14T13:43:58;7.50;99.90
17252;DHT22;8742;51.716;8.790;2023-03-14T13:46:28;7.40;99.90
17252;DHT22;8742;51.716;8.790;2023-03-14T13:48:58;7.30;99.90
17252;DHT22;8742;51.716;8.790;2023-03-14T13:51:26;7.20;99.90
17252;DHT22;8742;51.716;8.790;2023-03-14T13:53:57;7.10;99.90
17252;DHT22;8742;51.716;8.790;2023-03-14T13:56:25;7.10;99.90
17252;DHT22;8742;51.716;8.790;2023-03-14T13:58:53;7.00;99.90
17252;DHT22;8742;51.716;8.790;2023-03-14T14:01:22;7.00;99.90
17252;DHT22;8742;51.716;8.790;2023-03-14T14:03:53;7.00;99.90
17252;DHT22;8742;51.716;8.790;2023-03-14T14:06:29;6.80;99.90
17252;DHT22;8742;51.716;8.790;2023-03-14T14:08:58;6.60;99.90
17252;DHT22;8742;51.716;8.790;2023-03-14T14:11:35;6.50;99.90
17252;DHT22;8742;51.716;8.790;2023-03-14T14:14:06;6.30;99.90
17252;DHT22;8742;51.716;8.790;2023-03-14T14:16:36;6.30;99.90
17252;DHT22;8742;51.716;8.790;2023-03-14T14:19:04;6.20;99.90
17252;DHT22;8742;51.716;8.790;2023-03-14T14:21:31;6.20;99.90
17252;DHT22;8742;51.716;8.790;2023-03-14T14:23:59;6.20;99.90
17252;DHT22;8742;51.716;8.790;2023-03-14T14:26:26;6.20;99.90
17252;DHT22;8742;51.716;8.790;2023-03-14T14:29:02;6.20;99.90
17252;DHT22;8742;51.716;8.790;2023-03-14T14:31:29;6.30;99.90
17252;DHT22;8742;51.716;8.790;2023-03-14T14:33:57;6.40;99.90
17252;DHT22;8742;51.716;8.790;2023-03-14T14:36:28;6.50;99.90
17252;DHT22;8742;51.716;8.790;2023-03-14T14:39:00;6.50;99.90
17252;DHT22;8742;51.716;8.790;2023-03-14T14:41:31;6.70;99.90
17252;DHT22;8742;51.716;8.790;2023-03-14T14:44:00;6.70;99.90
17252;DHT22;8742;51.716;8.790;2023-03-14T14:46:31;6.80;99.90
17252;DHT22;8742;51.716;8.790;2023-03-14T14:49:03;7.00;99.90
17252;DHT22;8742;51.716;8.790;2023-03-14T14:51:41;7.10;99.90
17252;DHT22;8742;51.716;8.790;2023-03-14T14:54:14;7.10;99.90
17252;DHT22;8742;51.716;8.790;2023-03-14T14:56:46;7.10;99.90
17252;DHT22;8742;51.716;8.790;2023-03-14T14:59:23;7.20;99.90
17252;DHT22;8742;51.716;8.790;2023-03-14T15:01:50;7.20;99.90
17252;DHT22;8742;51.716;8.790;2023-03-14T15:04:21;7.20;99.90
17252;DHT22;8742;51.716;8.790;2023-03-14T15:06:50;7.30;99.90
17252;DHT22;8742;51.716;8.790;2023-03-14T15:09:18;7.30;99.90
17252;DHT22;8742;51.716;8.790;2023-03-14T15:11:45;7.40;99.90
17252;DHT22;8742;51.716;8.790;2023-03-14T15:14:12;7.40;99.90
17252;DHT22;8742;51.716;8.790;2023-03-14T15:16:39;7.40;99.90
17252;DHT22;8742;51.716;8.790;2023-03-14T15:19:17;7.40;99.90
17252;DHT22;8742;51.716;8.790;2023-03-14T15:21:45;7.20;99.90
17252;DHT22;8742;51.716;8.790;2023-03-14T15:24:13;7.10;99.90
17252;DHT22;8742;51.716;8.790;2023-03-14T15:26:40;7.00;99.90
17252;DHT22;8742;51.716;8.790;2023-03-14T15:29:08;6.90;99.90
17252;DHT22;8742;51.716;8.790;2023-03-14T15:31:37;6.80;99.90
17252;DHT22;8742;51.716;8.790;2023-03-14T15:34:05;6.80;99.90
17252;DHT22;8742;51.716;8.790;2023-03-14T15:36:33;6.70;99.90
17252;DHT22;8742;51.716;8.790;2023-03-14T15:39:01;6.70;99.90
17252;DHT22;8742;51.716;8.790;2023-03-14T15:41:29;6.70;99.90
17252;DHT22;8742;51.716;8.790;2023-03-14T15:43:56;6.70;99.90
17252;DHT22;8742;51.716;8.790;2023-03-14T15:46:23;6.70;99.90
17252;DHT22;8742;51.716;8.790;2023-03-14T15:48:51;6.90;99.90
17252;DHT22;8742;51.716;8.790;2023-03-14T15:51:18;7.10;99.90
17252;DHT22;8742;51.716;8.790;2023-03-14T15:53:45;7.20;99.90
17252;DHT22;8742;51.716;8.790;2023-03-14T15:56:14;7.30;99.90
17252;DHT22;8742;51.716;8.790;2023-03-14T15:58:43;7.20;99.90
17252;DHT22;8742;51.716;8.790;2023-03-14T16:01:12;7.20;99.90
17252;DHT22;8742;51.716;8.790;2023-03-14T16:03:41;7.10;99.90
17252;DHT22;8742;51.716;8.790;2023-03-14T16:06:09;7.00;99.90
17252;DHT22;8742;51.716;8.790;2023-03-14T16:08:36;7.00;99.90
17252;DHT22;8742;51.716;8.790;2023-03-14T16:11:03;6.90;99.90
17252;DHT22;8742;51.716;8.790;2023-03-14T16:13:30;6.80;99.90